createdAt,value
2023-05-06T00:01:36.882Z,4.55
2023-05-06T00:04:03.600Z,4.50
2023-05-06T00:06:30.593Z,4.50
2023-05-06T00:08:57.100Z,4.85
2023-05-06T00:11:23.860Z,4.95
2023-05-06T00:13:50.641Z,4.47
2023-05-06T00:16:17.154Z,4.78
2023-05-06T00:18:43.697Z,5.30
2023-05-06T00:21:10.468Z,4.75
2023-05-06T00:23:36.938Z,5.32
2023-05-06T00:26:03.521Z,5.20
2023-05-06T00:28:30.243Z,4.30
2023-05-06T00:30:57.834Z,5.03
2023-05-06T00:33:24.327Z,4.88
2023-05-06T00:35:52.916Z,5.30
2023-05-06T00:38:19.722Z,5.45
2023-05-06T00:40:46.261Z,5.00
2023-05-06T00:43:13.066Z,4.93
2023-05-06T00:45:39.974Z,5.85
2023-05-06T00:48:07.261Z,5.63
2023-05-06T00:50:36.118Z,5.30
2023-05-06T00:53:04.350Z,5.00
2023-05-06T00:55:31.666Z,4.90
2023-05-06T00:57:58.135Z,5.32
2023-05-06T01:00:24.857Z,5.40
2023-05-06T01:02:51.766Z,5.65
2023-05-06T01:05:21.587Z,5.38
2023-05-06T01:08:03.307Z,5.70
2023-05-06T01:10:42.994Z,5.63
2023-05-06T01:13:35.126Z,5.65
2023-05-06T01:16:04.318Z,5.80
2023-05-06T01:18:33.227Z,5.53
2023-05-06T01:21:03.475Z,5.35
2023-05-06T01:23:30.062Z,5.40
2023-05-06T01:25:56.713Z,6.28
2023-05-06T01:28:23.977Z,5.47
2023-05-06T01:31:08.615Z,6.55
2023-05-06T01:33:54.394Z,5.88
2023-05-06T01:36:44.390Z,5.50
2023-05-06T01:39:18.750Z,5.55
2023-05-06T01:41:50.821Z,5.32
2023-05-06T01:44:21.011Z,5.53
2023-05-06T01:46:49.788Z,5.15
2023-05-06T01:49:20.484Z,5.80
2023-05-06T01:51:48.551Z,5.00
2023-05-06T01:54:14.990Z,5.80
2023-05-06T01:56:41.766Z,5.82
2023-05-06T01:59:08.455Z,6.13
2023-05-06T02:01:35.212Z,6.30
2023-05-06T02:04:02.440Z,5.97
2023-05-06T02:06:29.050Z,5.78
2023-05-06T02:08:55.773Z,5.65
2023-05-06T02:11:22.298Z,5.82
2023-05-06T02:13:49.025Z,5.80
2023-05-06T02:16:15.523Z,5.47
2023-05-06T02:18:42.264Z,5.72
2023-05-06T02:21:10.554Z,5.18
2023-05-06T02:23:37.036Z,5.10
2023-05-06T02:26:03.679Z,5.15
2023-05-06T02:28:30.260Z,5.20
2023-05-06T02:30:57.446Z,5.38
2023-05-06T02:35:53.413Z,5.85
2023-05-06T02:38:21.427Z,5.35
2023-05-06T02:40:48.016Z,6.03
2023-05-06T02:43:14.517Z,5.82
2023-05-06T02:45:41.160Z,5.15
2023-05-06T02:48:07.614Z,5.53
2023-05-06T02:50:35.765Z,5.47
2023-05-06T02:53:03.181Z,5.82
2023-05-06T02:55:29.915Z,5.22
2023-05-06T02:57:56.582Z,5.18
2023-05-06T03:00:23.653Z,5.20
2023-05-06T03:02:50.285Z,5.20
2023-05-06T03:05:17.219Z,5.38
2023-05-06T03:07:43.938Z,5.30
2023-05-06T03:10:11.116Z,5.22
2023-05-06T03:12:38.082Z,5.30
2023-05-06T03:15:05.080Z,5.88
2023-05-06T03:17:31.659Z,5.80
2023-05-06T03:19:58.498Z,6.20
2023-05-06T03:22:25.228Z,5.65
2023-05-06T03:24:52.213Z,5.15
2023-05-06T03:27:18.885Z,5.47
2023-05-06T03:29:45.648Z,6.00
2023-05-06T03:32:12.473Z,5.82
2023-05-06T03:34:39.256Z,5.22
2023-05-06T03:37:05.727Z,5.95
2023-05-06T03:39:32.593Z,6.03
2023-05-06T03:41:59.166Z,5.97
2023-05-06T03:44:25.707Z,6.38
2023-05-06T03:46:52.207Z,5.93
2023-05-06T03:49:18.682Z,5.32
2023-05-06T03:51:46.532Z,5.55
2023-05-06T03:54:13.271Z,5.63
2023-05-06T03:56:39.980Z,6.57
2023-05-06T03:59:06.680Z,5.70
2023-05-06T04:01:33.195Z,5.88
2023-05-06T04:03:59.697Z,6.80
2023-05-06T04:06:26.489Z,7.00
2023-05-06T04:08:53.225Z,6.47
2023-05-06T04:11:20.358Z,6.35
2023-05-06T04:13:46.812Z,6.30
2023-05-06T04:16:13.958Z,6.70
2023-05-06T04:18:40.457Z,6.72
2023-05-06T04:21:07.658Z,6.78
2023-05-06T04:23:34.306Z,6.10
2023-05-06T04:26:01.816Z,6.60
2023-05-06T04:28:30.220Z,5.75
2023-05-06T04:30:56.630Z,6.55
2023-05-06T04:33:23.173Z,6.65
2023-05-06T04:35:53.266Z,6.68
2023-05-06T04:38:21.134Z,6.55
2023-05-06T04:40:47.684Z,6.20
2023-05-06T04:43:14.466Z,5.65
2023-05-06T04:45:43.191Z,7.00
2023-05-06T04:48:10.150Z,6.05
2023-05-06T04:50:36.664Z,6.63
2023-05-06T04:53:03.454Z,6.32
2023-05-06T04:55:30.027Z,6.22
2023-05-06T04:57:56.860Z,7.32
2023-05-06T05:00:24.671Z,6.35
2023-05-06T05:02:51.406Z,6.40
2023-05-06T05:05:19.754Z,6.60
2023-05-06T05:07:46.469Z,6.40
2023-05-06T05:10:13.379Z,6.45
2023-05-06T05:12:39.916Z,5.82
2023-05-06T05:15:06.858Z,6.35
2023-05-06T05:17:33.561Z,6.50
2023-05-06T05:20:00.045Z,6.38
2023-05-06T05:22:26.828Z,6.47
2023-05-06T05:24:53.554Z,6.25
2023-05-06T05:27:20.386Z,6.65
2023-05-06T05:29:46.888Z,6.20
2023-05-06T05:32:13.609Z,6.72
2023-05-06T05:34:40.295Z,6.32
2023-05-06T05:37:06.729Z,6.75
2023-05-06T05:39:33.408Z,6.47
2023-05-06T05:41:59.871Z,6.07
2023-05-06T05:44:26.277Z,6.07
2023-05-06T05:46:52.722Z,6.57
2023-05-06T05:49:23.261Z,5.97
2023-05-06T05:51:49.650Z,5.95
2023-05-06T05:54:16.198Z,6.30
2023-05-06T05:56:42.992Z,7.20
2023-05-06T05:59:09.485Z,6.15
2023-05-06T06:01:37.402Z,6.50
2023-05-06T06:04:04.852Z,6.30
2023-05-06T06:06:31.965Z,6.40
2023-05-06T06:08:59.030Z,6.78
2023-05-06T06:11:25.775Z,6.47
2023-05-06T06:13:52.693Z,7.72
2023-05-06T06:16:19.420Z,7.53
2023-05-06T06:18:45.874Z,7.18
2023-05-06T06:21:12.287Z,7.10
2023-05-06T06:23:38.742Z,6.70
2023-05-06T06:26:05.307Z,6.57
2023-05-06T06:28:32.149Z,6.28
2023-05-06T06:30:58.911Z,6.78
2023-05-06T06:33:25.377Z,7.18
2023-05-06T06:35:52.092Z,7.13
2023-05-06T06:38:18.679Z,7.25
2023-05-06T06:40:45.576Z,6.82
2023-05-06T06:43:12.312Z,7.68
2023-05-06T06:45:39.123Z,7.88
2023-05-06T06:48:05.871Z,7.10
2023-05-06T06:50:32.490Z,7.25
2023-05-06T06:52:58.899Z,7.55
2023-05-06T06:55:25.565Z,8.10
2023-05-06T06:57:52.072Z,7.97
2023-05-06T07:00:18.767Z,8.30
2023-05-06T07:02:46.728Z,7.75
2023-05-06T07:05:13.395Z,7.78
2023-05-06T07:07:40.300Z,8.25
2023-05-06T07:10:08.732Z,7.68
2023-05-06T07:12:35.508Z,9.15
2023-05-06T07:15:02.551Z,8.00
2023-05-06T07:17:29.209Z,8.50
2023-05-06T07:19:55.685Z,8.80
2023-05-06T07:22:22.766Z,9.43
2023-05-06T07:24:49.503Z,9.27
2023-05-06T07:27:16.025Z,9.13
2023-05-06T07:29:42.793Z,9.10
2023-05-06T07:32:09.639Z,8.90
2023-05-06T07:34:36.131Z,9.55
2023-05-06T07:37:02.835Z,9.07
2023-05-06T07:39:29.547Z,10.13
2023-05-06T07:41:56.063Z,9.60
2023-05-06T07:44:22.833Z,10.02
2023-05-06T07:46:49.826Z,10.88
2023-05-06T07:49:16.749Z,9.95
2023-05-06T07:51:45.097Z,10.57
2023-05-06T07:54:11.611Z,10.13
2023-05-06T07:56:38.521Z,9.35
2023-05-06T07:59:04.970Z,10.80
2023-05-06T08:01:31.545Z,10.77
2023-05-06T08:03:58.436Z,10.43
2023-05-06T08:06:25.565Z,10.10
2023-05-06T08:08:52.289Z,11.43
2023-05-06T08:11:19.461Z,10.25
2023-05-06T08:13:46.033Z,10.95
2023-05-06T08:16:12.694Z,10.27
2023-05-06T08:18:39.443Z,11.05
2023-05-06T08:21:08.035Z,10.18
2023-05-06T08:23:34.844Z,11.15
2023-05-06T08:26:01.552Z,11.45
2023-05-06T08:28:28.085Z,10.27
2023-05-06T08:30:55.091Z,10.50
2023-05-06T08:33:23.080Z,10.18
2023-05-06T08:35:49.620Z,10.85
2023-05-06T08:38:16.077Z,11.20
2023-05-06T08:40:44.760Z,10.65
2023-05-06T08:43:15.201Z,9.25
2023-05-06T08:45:42.091Z,9.80
2023-05-06T08:48:09.578Z,8.55
2023-05-06T08:50:41.184Z,8.18
2023-05-06T08:53:10.458Z,8.98
2023-05-06T08:55:37.410Z,8.73
2023-05-06T08:58:06.819Z,9.20
2023-05-06T09:00:34.413Z,8.65
2023-05-06T09:03:01.157Z,7.80
2023-05-06T09:05:27.772Z,8.20
2023-05-06T09:07:54.663Z,8.45
2023-05-06T09:10:21.135Z,8.15
2023-05-06T09:12:47.902Z,8.20
2023-05-06T09:15:14.485Z,8.77
2023-05-06T09:17:41.115Z,7.68
2023-05-06T09:20:12.273Z,7.68
2023-05-06T09:22:39.124Z,7.35
2023-05-06T09:25:06.072Z,9.55
2023-05-06T09:27:35.170Z,7.65
2023-05-06T09:30:07.222Z,7.38
2023-05-06T09:32:38.174Z,7.38
2023-05-06T09:35:06.995Z,7.07
2023-05-06T09:37:33.569Z,6.75
2023-05-06T09:40:00.393Z,8.80
2023-05-06T09:42:29.143Z,6.97
2023-05-06T09:45:02.152Z,7.45
2023-05-06T09:47:34.190Z,7.28
2023-05-06T09:50:04.701Z,7.30
2023-05-06T09:52:31.652Z,7.03
2023-05-06T09:55:01.448Z,7.53
2023-05-06T09:57:32.285Z,6.65
2023-05-06T10:00:02.341Z,7.15
2023-05-06T10:02:29.285Z,6.57
2023-05-06T10:04:58.607Z,7.22
2023-05-06T10:07:26.196Z,6.60
2023-05-06T10:09:54.128Z,7.43
2023-05-06T10:12:20.794Z,7.57
2023-05-06T10:14:47.757Z,7.03
2023-05-06T10:17:14.173Z,6.07
2023-05-06T10:19:44.892Z,6.95
2023-05-06T10:22:22.689Z,6.45
2023-05-06T10:24:58.705Z,7.13
2023-05-06T10:27:25.446Z,6.80
2023-05-06T10:29:59.325Z,8.93
2023-05-06T10:32:31.713Z,7.20
2023-05-06T10:35:09.164Z,6.05
2023-05-06T10:37:38.538Z,6.20
2023-05-06T10:40:05.623Z,5.68
2023-05-06T10:42:35.171Z,6.35
2023-05-06T10:45:05.923Z,6.93
2023-05-06T10:47:59.654Z,7.03
2023-05-06T10:50:27.127Z,5.47
2023-05-06T10:52:55.650Z,6.40
2023-05-06T10:55:33.069Z,5.85
2023-05-06T10:58:06.313Z,5.05
2023-05-06T11:00:34.388Z,4.32
2023-05-06T11:03:05.295Z,5.00
2023-05-06T11:05:46.628Z,5.30
2023-05-06T11:08:13.401Z,5.47
2023-05-06T11:10:40.205Z,5.53
2023-05-06T11:13:36.223Z,5.50
2023-05-06T11:16:03.486Z,4.70
2023-05-06T11:21:02.315Z,4.45
2023-05-06T11:23:47.063Z,5.32
2023-05-06T11:26:13.950Z,4.88
2023-05-06T11:28:44.107Z,4.68
2023-05-06T11:31:12.164Z,5.05
2023-05-06T11:33:48.381Z,4.55
2023-05-06T11:36:16.548Z,4.95
2023-05-06T11:39:06.827Z,5.20
2023-05-06T11:41:33.617Z,5.03
2023-05-06T11:44:00.539Z,4.80
2023-05-06T11:46:32.480Z,5.00
2023-05-06T11:48:59.262Z,4.90
2023-05-06T11:51:28.344Z,4.55
2023-05-06T11:54:09.290Z,4.60
2023-05-06T11:56:51.213Z,4.53
2023-05-06T11:59:25.844Z,4.28
2023-05-06T12:01:52.368Z,4.57
2023-05-06T12:04:19.404Z,5.82
2023-05-06T12:06:46.450Z,4.35
2023-05-06T12:09:13.740Z,4.72
2023-05-06T12:14:11.413Z,3.78
2023-05-06T12:16:38.672Z,4.35
2023-05-06T12:21:38.345Z,3.30
2023-05-06T12:24:05.286Z,3.42
2023-05-06T12:26:46.182Z,3.60
2023-05-06T12:29:15.354Z,4.60
2023-05-06T12:31:42.173Z,3.63
2023-05-06T12:34:08.846Z,3.65
2023-05-06T12:36:42.716Z,3.53
2023-05-06T12:39:09.198Z,3.30
2023-05-06T12:41:43.774Z,3.35
2023-05-06T12:44:40.931Z,3.38
2023-05-06T12:47:10.511Z,3.80
2023-05-06T12:49:46.495Z,3.15
2023-05-06T12:52:13.311Z,3.08
2023-05-06T12:54:39.886Z,3.42
2023-05-06T12:57:06.717Z,3.00
2023-05-06T12:59:34.892Z,3.53
2023-05-06T13:02:01.752Z,3.45
2023-05-06T13:04:28.564Z,3.00
2023-05-06T13:06:55.462Z,3.10
2023-05-06T13:09:22.179Z,3.10
2023-05-06T13:11:48.886Z,3.50
2023-05-06T13:14:15.653Z,3.30
2023-05-06T13:16:45.418Z,3.05
2023-05-06T13:19:21.039Z,3.13
2023-05-06T13:21:58.107Z,3.90
2023-05-06T13:24:24.856Z,3.38
2023-05-06T13:26:51.340Z,3.63
2023-05-06T13:29:17.779Z,3.53
2023-05-06T13:31:44.235Z,3.70
2023-05-06T13:34:10.712Z,3.83
2023-05-06T13:36:37.512Z,3.88
2023-05-06T13:39:04.016Z,3.70
2023-05-06T13:41:30.710Z,4.13
2023-05-06T13:43:57.294Z,3.72
2023-05-06T13:46:23.783Z,3.40
2023-05-06T13:48:52.039Z,3.67
2023-05-06T13:51:18.940Z,3.10
2023-05-06T13:53:46.036Z,3.60
2023-05-06T13:58:40.748Z,2.83
2023-05-06T14:01:07.566Z,3.53
2023-05-06T14:03:34.589Z,2.88
2023-05-06T14:06:01.329Z,2.85
2023-05-06T14:08:27.986Z,2.72
2023-05-06T14:10:54.468Z,2.53
2023-05-06T14:13:21.166Z,2.75
2023-05-06T14:15:47.915Z,2.67
2023-05-06T14:18:14.433Z,2.47
2023-05-06T14:20:41.384Z,2.60
2023-05-06T14:23:08.475Z,2.60
2023-05-06T14:25:35.156Z,2.60
2023-05-06T14:28:01.997Z,2.88
2023-05-06T14:30:28.462Z,2.65
2023-05-06T14:32:55.231Z,2.90
2023-05-06T14:35:22.247Z,3.00
2023-05-06T14:37:49.048Z,2.67
2023-05-06T14:40:16.539Z,3.08
2023-05-06T14:42:43.546Z,3.03
2023-05-06T14:45:10.686Z,3.72
2023-05-06T14:47:38.227Z,3.35
2023-05-06T14:50:06.108Z,3.40
2023-05-06T14:52:32.601Z,3.30
2023-05-06T14:54:59.415Z,2.95
2023-05-06T14:57:25.910Z,3.33
2023-05-06T14:59:52.452Z,3.45
2023-05-06T15:02:18.853Z,3.42
2023-05-06T15:04:45.649Z,3.35
2023-05-06T15:07:12.259Z,3.72
2023-05-06T15:09:39.002Z,3.42
2023-05-06T15:12:06.757Z,3.60
2023-05-06T15:14:33.319Z,3.63
2023-05-06T15:17:00.171Z,3.38
2023-05-06T15:19:26.816Z,3.88
2023-05-06T15:21:53.424Z,3.75
2023-05-06T15:24:20.135Z,4.20
2023-05-06T15:26:46.619Z,3.92
2023-05-06T15:29:13.673Z,4.45
2023-05-06T15:31:40.397Z,4.13
2023-05-06T15:34:07.924Z,4.10
2023-05-06T15:36:34.701Z,4.18
2023-05-06T15:39:01.581Z,4.22
2023-05-06T15:41:32.515Z,4.93
2023-05-06T15:44:01.752Z,4.53
2023-05-06T15:46:29.825Z,4.10
2023-05-06T15:49:22.385Z,4.45
2023-05-06T15:51:44.479Z,4.10
2023-05-06T15:54:10.883Z,4.32
2023-05-06T15:56:41.104Z,4.55
2023-05-06T15:59:08.519Z,4.57
2023-05-06T16:01:57.440Z,4.22
2023-05-06T16:04:24.646Z,4.68
2023-05-06T16:06:51.434Z,4.50
2023-05-06T16:09:17.937Z,4.53
2023-05-06T16:11:46.462Z,3.97
2023-05-06T16:14:13.704Z,4.28
2023-05-06T16:16:40.821Z,4.72
2023-05-06T16:21:34.087Z,3.90
2023-05-06T16:24:00.899Z,3.90
2023-05-06T16:26:27.814Z,3.92
2023-05-06T16:28:54.475Z,3.70
2023-05-06T16:31:21.383Z,4.30
2023-05-06T16:33:48.115Z,3.97
2023-05-06T16:36:14.588Z,4.57
2023-05-06T16:38:41.047Z,4.38
2023-05-06T16:41:07.744Z,4.47
2023-05-06T16:43:34.292Z,5.03
2023-05-06T16:46:00.989Z,4.70
2023-05-06T16:48:27.823Z,5.03
2023-05-06T16:50:54.554Z,5.35
2023-05-06T16:53:20.988Z,4.75
2023-05-06T16:55:49.235Z,5.28
2023-05-06T16:58:16.094Z,5.32
2023-05-06T17:00:43.209Z,4.97
2023-05-06T17:03:12.193Z,5.57
2023-05-06T17:05:38.812Z,5.40
2023-05-06T17:08:05.705Z,5.03
2023-05-06T17:10:32.529Z,5.13
2023-05-06T17:12:59.335Z,4.90
2023-05-06T17:15:26.250Z,5.78
2023-05-06T17:17:52.837Z,5.72
2023-05-06T17:20:20.460Z,7.13
2023-05-06T17:22:47.161Z,6.03
2023-05-06T17:25:13.810Z,5.85
2023-05-06T17:27:40.505Z,5.32
2023-05-06T17:30:09.778Z,6.20
2023-05-06T17:32:36.576Z,6.25
2023-05-06T17:35:03.429Z,5.63
2023-05-06T17:37:31.636Z,5.47
2023-05-06T17:39:58.533Z,6.57
2023-05-06T17:42:25.337Z,7.20
2023-05-06T17:44:51.978Z,6.90
2023-05-06T17:47:18.685Z,5.68
2023-05-06T17:49:45.118Z,6.28
2023-05-06T17:52:11.723Z,6.05
2023-05-06T17:54:38.430Z,6.25
2023-05-06T17:57:05.151Z,6.00
2023-05-06T17:59:31.554Z,6.40
2023-05-06T18:01:58.014Z,6.85
2023-05-06T18:04:26.603Z,6.47
2023-05-06T18:06:53.185Z,6.47
2023-05-06T18:09:19.891Z,6.43
2023-05-06T18:11:46.431Z,6.57
2023-05-06T18:14:13.069Z,7.05
2023-05-06T18:16:39.752Z,8.75
2023-05-06T18:19:06.351Z,7.65
2023-05-06T18:21:33.201Z,7.60
2023-05-06T18:24:10.308Z,7.40
2023-05-06T18:26:45.210Z,7.97
2023-05-06T18:29:12.938Z,7.75
2023-05-06T18:31:39.541Z,8.43
2023-05-06T18:34:06.198Z,8.52
2023-05-06T18:36:33.064Z,7.78
2023-05-06T18:38:59.739Z,7.90
2023-05-06T18:41:26.436Z,7.78
2023-05-06T18:43:53.114Z,8.20
2023-05-06T18:46:19.927Z,7.60
2023-05-06T18:48:46.700Z,8.05
2023-05-06T18:51:15.184Z,8.50
2023-05-06T18:53:42.099Z,8.77
2023-05-06T18:56:09.412Z,8.18
2023-05-06T18:58:37.251Z,8.63
2023-05-06T19:01:04.631Z,8.75
2023-05-06T19:03:32.546Z,9.35
2023-05-06T19:06:00.117Z,9.77
2023-05-06T19:08:26.601Z,10.02
2023-05-06T19:10:53.025Z,9.77
2023-05-06T19:13:19.649Z,9.75
2023-05-06T19:15:46.497Z,9.90
2023-05-06T19:18:12.931Z,9.60
2023-05-06T19:20:40.407Z,11.15
2023-05-06T19:23:07.083Z,11.15
2023-05-06T19:25:38.197Z,10.40
2023-05-06T19:28:06.020Z,10.45
2023-05-06T19:30:34.547Z,10.40
2023-05-06T19:33:02.401Z,11.52
2023-05-06T19:35:29.276Z,10.10
2023-05-06T19:37:55.635Z,11.65
2023-05-06T19:40:22.368Z,11.15
2023-05-06T19:42:48.741Z,11.90
2023-05-06T19:45:16.780Z,10.57
2023-05-06T19:47:45.393Z,11.07
2023-05-06T19:50:12.274Z,10.85
2023-05-06T19:52:38.943Z,11.63
2023-05-06T19:55:06.037Z,11.30
2023-05-06T19:57:32.477Z,11.25
2023-05-06T19:59:58.953Z,10.82
2023-05-06T20:02:25.820Z,12.27
2023-05-06T20:04:52.323Z,11.82
2023-05-06T20:07:20.989Z,12.05
2023-05-06T20:09:48.073Z,11.90
2023-05-06T20:12:15.763Z,12.25
2023-05-06T20:14:42.143Z,12.70
2023-05-06T20:17:11.434Z,13.00
2023-05-06T20:19:38.071Z,12.07
2023-05-06T20:22:05.265Z,12.95
2023-05-06T20:24:31.942Z,13.45
2023-05-06T20:26:58.821Z,13.18
2023-05-06T20:29:25.583Z,13.10
2023-05-06T20:31:52.476Z,13.65
2023-05-06T20:34:18.913Z,12.05
2023-05-06T20:36:47.320Z,12.00
2023-05-06T20:39:13.834Z,12.60
2023-05-06T20:41:40.495Z,12.35
2023-05-06T20:44:06.959Z,12.60
2023-05-06T20:46:33.394Z,13.10
2023-05-06T20:49:00.501Z,10.85
2023-05-06T20:51:27.008Z,12.98
2023-05-06T20:53:55.561Z,12.30
2023-05-06T20:56:23.867Z,12.77
2023-05-06T20:58:51.623Z,11.98
2023-05-06T21:01:19.320Z,12.55
2023-05-06T21:03:47.166Z,12.15
2023-05-06T21:06:15.469Z,13.35
2023-05-06T21:08:43.102Z,12.90
2023-05-06T21:11:10.419Z,12.73
2023-05-06T21:16:04.285Z,13.43
2023-05-06T21:20:57.803Z,12.98
2023-05-06T21:23:24.524Z,13.40
2023-05-06T21:25:51.301Z,13.85
2023-05-06T21:28:17.999Z,11.77
2023-05-06T21:30:44.851Z,12.73
2023-05-06T21:33:11.497Z,14.52
2023-05-06T21:35:38.246Z,13.25
2023-05-06T21:38:04.921Z,14.10
2023-05-06T21:40:31.518Z,13.50
2023-05-06T21:42:58.126Z,13.73
2023-05-06T21:45:24.585Z,14.38
2023-05-06T21:47:51.282Z,12.68
2023-05-06T21:50:19.104Z,13.93
2023-05-06T21:52:45.510Z,14.95
2023-05-06T21:55:12.125Z,13.27
2023-05-06T21:57:38.838Z,14.43
2023-05-06T22:00:06.587Z,13.27
2023-05-06T22:02:33.507Z,13.18
2023-05-06T22:05:00.058Z,11.68
2023-05-06T22:07:26.495Z,13.43
2023-05-06T22:09:52.856Z,13.23
2023-05-06T22:12:20.128Z,13.30
2023-05-06T22:17:12.848Z,11.50
2023-05-06T22:19:39.930Z,13.20
2023-05-06T22:22:06.695Z,12.82
2023-05-06T22:24:33.722Z,12.70
2023-05-06T22:27:00.445Z,13.35
2023-05-06T22:29:27.188Z,12.93
2023-05-06T22:31:53.905Z,12.95
2023-05-06T22:34:20.632Z,13.27
2023-05-06T22:36:47.375Z,12.98
2023-05-06T22:39:14.036Z,13.02
2023-05-06T22:41:40.404Z,13.52
2023-05-06T22:44:06.833Z,13.43
2023-05-06T22:46:33.564Z,13.35
2023-05-06T22:49:00.272Z,13.02
2023-05-06T22:51:26.750Z,13.02
2023-05-06T22:53:53.149Z,13.00
2023-05-06T22:56:19.897Z,13.63
2023-05-06T22:58:46.756Z,12.75
2023-05-06T23:01:13.589Z,12.65
2023-05-06T23:03:40.471Z,11.80
2023-05-06T23:06:07.329Z,12.75
2023-05-06T23:08:34.023Z,11.40
2023-05-06T23:11:00.754Z,12.73
2023-05-06T23:13:27.850Z,11.05
2023-05-06T23:15:54.683Z,11.90
2023-05-06T23:18:21.238Z,11.77
2023-05-06T23:20:47.980Z,11.40
2023-05-06T23:23:14.740Z,11.73
2023-05-06T23:25:41.614Z,11.35
2023-05-06T23:28:08.401Z,11.77
2023-05-06T23:30:35.209Z,10.73
2023-05-06T23:33:01.993Z,12.02
2023-05-06T23:35:28.623Z,11.48
2023-05-06T23:37:55.086Z,11.10
2023-05-06T23:40:21.904Z,11.35
2023-05-06T23:42:49.044Z,11.88
2023-05-06T23:47:42.577Z,10.75
2023-05-06T23:50:09.797Z,11.27
2023-05-06T23:52:36.510Z,11.15
2023-05-06T23:55:03.308Z,11.35
2023-05-06T23:57:30.108Z,10.48
2023-05-06T23:59:56.656Z,11.77
